sensor_id;sensor_type;location;lat;lon;timestamp;P1;durP1;ratioP1;P2;durP2;ratioP2
4529;SDS011;2277;51.626;7.516;2023-01-29T00:01:07;22.77;;;14.77;;
4529;SDS011;2277;51.626;7.516;2023-01-29T00:03:33;19.33;;;12.43;;
4529;SDS011;2277;51.626;7.516;2023-01-29T00:06:00;14.07;;;12.57;;
4529;SDS011;2277;51.626;7.516;2023-01-29T00:08:32;14.23;;;11.15;;
4529;SDS011;2277;51.626;7.516;2023-01-29T00:11:02;19.90;;;15.27;;
4529;SDS011;2277;51.626;7.516;2023-01-29T00:13:28;16.25;;;14.82;;
4529;SDS011;2277;51.626;7.516;2023-01-29T00:15:55;15.93;;;12.63;;
4529;SDS011;2277;51.626;7.516;2023-01-29T00:18:22;21.77;;;14.55;;
4529;SDS011;2277;51.626;7.516;2023-01-29T00:20:48;17.43;;;11.83;;
4529;SDS011;2277;51.626;7.516;2023-01-29T00:23:13;16.43;;;13.00;;
4529;SDS011;2277;51.626;7.516;2023-01-29T00:25:39;25.23;;;15.37;;
4529;SDS011;2277;51.626;7.516;2023-01-29T00:28:06;19.35;;;12.20;;
4529;SDS011;2277;51.626;7.516;2023-01-29T00:30:31;15.90;;;14.10;;
4529;SDS011;2277;51.626;7.516;2023-01-29T00:32:57;16.20;;;11.67;;
4529;SDS011;2277;51.626;7.516;2023-01-29T00:35:23;13.17;;;11.90;;
4529;SDS011;2277;51.626;7.516;2023-01-29T00:37:48;20.83;;;11.13;;
4529;SDS011;2277;51.626;7.516;2023-01-29T00:40:14;23.23;;;13.87;;
4529;SDS011;2277;51.626;7.516;2023-01-29T00:42:40;19.17;;;12.93;;
4529;SDS011;2277;51.626;7.516;2023-01-29T00:45:26;15.25;;;12.75;;
4529;SDS011;2277;51.626;7.516;2023-01-29T00:47:52;21.27;;;13.80;;
4529;SDS011;2277;51.626;7.516;2023-01-29T00:50:17;18.90;;;11.20;;
4529;SDS011;2277;51.626;7.516;2023-01-29T00:52:43;19.70;;;14.23;;
4529;SDS011;2277;51.626;7.516;2023-01-29T00:55:08;19.87;;;12.60;;
4529;SDS011;2277;51.626;7.516;2023-01-29T00:57:35;16.80;;;12.02;;
4529;SDS011;2277;51.626;7.516;2023-01-29T01:00:03;20.45;;;12.52;;
4529;SDS011;2277;51.626;7.516;2023-01-29T01:02:30;19.30;;;16.42;;
4529;SDS011;2277;51.626;7.516;2023-01-29T01:05:15;28.13;;;16.80;;
4529;SDS011;2277;51.626;7.516;2023-01-29T01:07:47;17.85;;;12.00;;
4529;SDS011;2277;51.626;7.516;2023-01-29T01:10:19;16.13;;;12.73;;
4529;SDS011;2277;51.626;7.516;2023-01-29T01:12:56;16.73;;;14.67;;
4529;SDS011;2277;51.626;7.516;2023-01-29T01:15:25;20.03;;;13.70;;
4529;SDS011;2277;51.626;7.516;2023-01-29T01:17:56;19.47;;;14.40;;
4529;SDS011;2277;51.626;7.516;2023-01-29T01:20:24;19.67;;;17.37;;
4529;SDS011;2277;51.626;7.516;2023-01-29T01:22:52;23.10;;;14.57;;
4529;SDS011;2277;51.626;7.516;2023-01-29T01:25:18;24.03;;;13.40;;
4529;SDS011;2277;51.626;7.516;2023-01-29T01:27:44;18.67;;;14.33;;
4529;SDS011;2277;51.626;7.516;2023-01-29T01:30:11;21.37;;;16.70;;
4529;SDS011;2277;51.626;7.516;2023-01-29T01:32:39;18.25;;;16.33;;
4529;SDS011;2277;51.626;7.516;2023-01-29T01:35:06;20.52;;;14.73;;
4529;SDS011;2277;51.626;7.516;2023-01-29T01:37:32;18.95;;;14.88;;
4529;SDS011;2277;51.626;7.516;2023-01-29T01:40:01;22.58;;;15.23;;
4529;SDS011;2277;51.626;7.516;2023-01-29T01:42:29;20.77;;;12.05;;
4529;SDS011;2277;51.626;7.516;2023-01-29T01:44:59;22.40;;;17.87;;
4529;SDS011;2277;51.626;7.516;2023-01-29T01:50:08;25.42;;;13.32;;
4529;SDS011;2277;51.626;7.516;2023-01-29T01:52:44;12.98;;;11.30;;
4529;SDS011;2277;51.626;7.516;2023-01-29T01:55:13;15.32;;;10.82;;
4529;SDS011;2277;51.626;7.516;2023-01-29T01:57:43;22.67;;;12.07;;
4529;SDS011;2277;51.626;7.516;2023-01-29T02:00:12;16.83;;;10.93;;
4529;SDS011;2277;51.626;7.516;2023-01-29T02:02:41;19.63;;;12.85;;
4529;SDS011;2277;51.626;7.516;2023-01-29T02:05:28;16.42;;;13.60;;
4529;SDS011;2277;51.626;7.516;2023-01-29T02:08:15;13.70;;;12.38;;
4529;SDS011;2277;51.626;7.516;2023-01-29T02:11:08;17.75;;;13.05;;
4529;SDS011;2277;51.626;7.516;2023-01-29T02:13:34;19.47;;;11.07;;
4529;SDS011;2277;51.626;7.516;2023-01-29T02:16:00;18.42;;;12.43;;
4529;SDS011;2277;51.626;7.516;2023-01-29T02:18:26;20.13;;;14.60;;
4529;SDS011;2277;51.626;7.516;2023-01-29T02:21:03;22.50;;;16.30;;
4529;SDS011;2277;51.626;7.516;2023-01-29T02:27:04;17.85;;;15.63;;
4529;SDS011;2277;51.626;7.516;2023-01-29T02:34:59;23.13;;;14.70;;
4529;SDS011;2277;51.626;7.516;2023-01-29T02:38:06;28.65;;;12.15;;
4529;SDS011;2277;51.626;7.516;2023-01-29T02:45:53;23.10;;;15.32;;
4529;SDS011;2277;51.626;7.516;2023-01-29T02:48:28;21.45;;;14.55;;
4529;SDS011;2277;51.626;7.516;2023-01-29T02:51:04;17.15;;;13.73;;
4529;SDS011;2277;51.626;7.516;2023-01-29T02:53:43;21.58;;;16.13;;
4529;SDS011;2277;51.626;7.516;2023-01-29T02:56:43;23.50;;;18.30;;
4529;SDS011;2277;51.626;7.516;2023-01-29T02:59:38;25.90;;;14.20;;
4529;SDS011;2277;51.626;7.516;2023-01-29T03:02:28;23.42;;;15.18;;
4529;SDS011;2277;51.626;7.516;2023-01-29T03:05:20;30.02;;;15.02;;
4529;SDS011;2277;51.626;7.516;2023-01-29T03:07:55;14.18;;;12.85;;
4529;SDS011;2277;51.626;7.516;2023-01-29T03:10:27;22.02;;;15.50;;
4529;SDS011;2277;51.626;7.516;2023-01-29T03:13:00;23.75;;;13.15;;
4529;SDS011;2277;51.626;7.516;2023-01-29T03:15:34;20.25;;;14.80;;
4529;SDS011;2277;51.626;7.516;2023-01-29T03:18:11;25.55;;;14.95;;
4529;SDS011;2277;51.626;7.516;2023-01-29T03:20:43;32.75;;;17.70;;
4529;SDS011;2277;51.626;7.516;2023-01-29T03:23:18;19.58;;;15.98;;
4529;SDS011;2277;51.626;7.516;2023-01-29T03:25:51;20.20;;;14.70;;
4529;SDS011;2277;51.626;7.516;2023-01-29T03:28:41;20.77;;;14.18;;
4529;SDS011;2277;51.626;7.516;2023-01-29T03:31:27;21.67;;;17.17;;
4529;SDS011;2277;51.626;7.516;2023-01-29T03:34:14;21.42;;;12.40;;
4529;SDS011;2277;51.626;7.516;2023-01-29T03:36:50;21.30;;;14.75;;
4529;SDS011;2277;51.626;7.516;2023-01-29T03:39:20;21.55;;;16.80;;
4529;SDS011;2277;51.626;7.516;2023-01-29T03:41:47;66.13;;;18.23;;
4529;SDS011;2277;51.626;7.516;2023-01-29T03:50:02;19.73;;;12.50;;
4529;SDS011;2277;51.626;7.516;2023-01-29T03:52:41;19.65;;;14.00;;
4529;SDS011;2277;51.626;7.516;2023-01-29T03:55:19;23.00;;;17.25;;
4529;SDS011;2277;51.626;7.516;2023-01-29T03:57:56;29.30;;;19.65;;
4529;SDS011;2277;51.626;7.516;2023-01-29T04:00:27;17.92;;;14.07;;
4529;SDS011;2277;51.626;7.516;2023-01-29T04:03:05;24.52;;;15.82;;
4529;SDS011;2277;51.626;7.516;2023-01-29T04:06:26;31.83;;;19.02;;
4529;SDS011;2277;51.626;7.516;2023-01-29T04:08:39;26.48;;;14.00;;
4529;SDS011;2277;51.626;7.516;2023-01-29T04:11:09;24.33;;;15.18;;
4529;SDS011;2277;51.626;7.516;2023-01-29T04:13:37;24.27;;;16.55;;
4529;SDS011;2277;51.626;7.516;2023-01-29T04:16:05;22.88;;;13.60;;
4529;SDS011;2277;51.626;7.516;2023-01-29T04:18:36;19.15;;;15.05;;
4529;SDS011;2277;51.626;7.516;2023-01-29T04:21:02;19.40;;;15.07;;
4529;SDS011;2277;51.626;7.516;2023-01-29T04:23:31;23.60;;;17.33;;
4529;SDS011;2277;51.626;7.516;2023-01-29T04:28:52;26.83;;;17.03;;
4529;SDS011;2277;51.626;7.516;2023-01-29T04:31:22;24.40;;;14.90;;
4529;SDS011;2277;51.626;7.516;2023-01-29T04:39:54;25.08;;;13.35;;
4529;SDS011;2277;51.626;7.516;2023-01-29T04:42:36;22.13;;;15.40;;
4529;SDS011;2277;51.626;7.516;2023-01-29T04:45:27;22.03;;;12.97;;
4529;SDS011;2277;51.626;7.516;2023-01-29T04:48:21;20.43;;;13.50;;
4529;SDS011;2277;51.626;7.516;2023-01-29T04:51:05;35.10;;;18.90;;
4529;SDS011;2277;51.626;7.516;2023-01-29T04:54:08;25.77;;;16.13;;
4529;SDS011;2277;51.626;7.516;2023-01-29T04:59:23;29.10;;;16.60;;
4529;SDS011;2277;51.626;7.516;2023-01-29T05:01:56;22.30;;;14.47;;
4529;SDS011;2277;51.626;7.516;2023-01-29T05:04:25;18.47;;;14.23;;
4529;SDS011;2277;51.626;7.516;2023-01-29T05:06:53;23.40;;;15.30;;
4529;SDS011;2277;51.626;7.516;2023-01-29T05:09:19;30.27;;;14.87;;
4529;SDS011;2277;51.626;7.516;2023-01-29T05:11:46;32.27;;;14.70;;
4529;SDS011;2277;51.626;7.516;2023-01-29T05:14:13;30.20;;;16.47;;
4529;SDS011;2277;51.626;7.516;2023-01-29T05:16:42;23.27;;;19.03;;
4529;SDS011;2277;51.626;7.516;2023-01-29T05:19:15;31.27;;;21.52;;
4529;SDS011;2277;51.626;7.516;2023-01-29T05:21:45;18.50;;;12.70;;
4529;SDS011;2277;51.626;7.516;2023-01-29T05:24:16;31.23;;;17.10;;
4529;SDS011;2277;51.626;7.516;2023-01-29T05:26:47;29.93;;;15.50;;
4529;SDS011;2277;51.626;7.516;2023-01-29T05:29:33;24.10;;;15.87;;
4529;SDS011;2277;51.626;7.516;2023-01-29T05:31:59;34.00;;;16.90;;
4529;SDS011;2277;51.626;7.516;2023-01-29T05:34:25;22.70;;;14.97;;
4529;SDS011;2277;51.626;7.516;2023-01-29T05:36:50;20.70;;;14.10;;
4529;SDS011;2277;51.626;7.516;2023-01-29T05:39:16;37.77;;;20.93;;
4529;SDS011;2277;51.626;7.516;2023-01-29T05:41:42;23.63;;;16.17;;
4529;SDS011;2277;51.626;7.516;2023-01-29T05:44:11;16.37;;;14.00;;
4529;SDS011;2277;51.626;7.516;2023-01-29T05:46:37;29.23;;;18.92;;
4529;SDS011;2277;51.626;7.516;2023-01-29T05:49:03;25.23;;;18.48;;
4529;SDS011;2277;51.626;7.516;2023-01-29T05:51:29;24.83;;;11.80;;
4529;SDS011;2277;51.626;7.516;2023-01-29T05:53:54;28.97;;;19.23;;
4529;SDS011;2277;51.626;7.516;2023-01-29T05:56:20;19.83;;;17.77;;
4529;SDS011;2277;51.626;7.516;2023-01-29T05:58:46;14.97;;;12.17;;
4529;SDS011;2277;51.626;7.516;2023-01-29T06:03:47;32.05;;;17.63;;
4529;SDS011;2277;51.626;7.516;2023-01-29T06:06:13;17.03;;;15.37;;
4529;SDS011;2277;51.626;7.516;2023-01-29T06:08:39;22.75;;;16.33;;
4529;SDS011;2277;51.626;7.516;2023-01-29T06:11:11;26.10;;;21.33;;
4529;SDS011;2277;51.626;7.516;2023-01-29T06:13:38;28.17;;;17.27;;
4529;SDS011;2277;51.626;7.516;2023-01-29T06:16:04;26.77;;;19.48;;
4529;SDS011;2277;51.626;7.516;2023-01-29T06:18:31;27.77;;;15.03;;
4529;SDS011;2277;51.626;7.516;2023-01-29T06:21:03;28.50;;;16.20;;
4529;SDS011;2277;51.626;7.516;2023-01-29T06:23:29;18.77;;;16.88;;
4529;SDS011;2277;51.626;7.516;2023-01-29T06:26:03;23.53;;;14.13;;
4529;SDS011;2277;51.626;7.516;2023-01-29T06:28:30;18.47;;;12.50;;
4529;SDS011;2277;51.626;7.516;2023-01-29T06:31:00;25.23;;;16.38;;
4529;SDS011;2277;51.626;7.516;2023-01-29T06:33:27;29.67;;;15.70;;
4529;SDS011;2277;51.626;7.516;2023-01-29T06:35:56;17.70;;;12.30;;
4529;SDS011;2277;51.626;7.516;2023-01-29T06:38:23;28.73;;;19.73;;
4529;SDS011;2277;51.626;7.516;2023-01-29T06:40:49;30.60;;;16.83;;
4529;SDS011;2277;51.626;7.516;2023-01-29T06:43:15;21.67;;;19.37;;
4529;SDS011;2277;51.626;7.516;2023-01-29T06:45:50;23.13;;;13.50;;
4529;SDS011;2277;51.626;7.516;2023-01-29T06:48:17;19.67;;;13.13;;
4529;SDS011;2277;51.626;7.516;2023-01-29T06:50:44;13.95;;;12.50;;
4529;SDS011;2277;51.626;7.516;2023-01-29T06:53:10;17.07;;;13.50;;
4529;SDS011;2277;51.626;7.516;2023-01-29T06:55:36;22.85;;;15.98;;
4529;SDS011;2277;51.626;7.516;2023-01-29T06:58:05;24.03;;;15.00;;
4529;SDS011;2277;51.626;7.516;2023-01-29T07:00:32;25.42;;;15.60;;
4529;SDS011;2277;51.626;7.516;2023-01-29T07:02:58;22.60;;;14.13;;
4529;SDS011;2277;51.626;7.516;2023-01-29T07:05:24;19.57;;;11.60;;
4529;SDS011;2277;51.626;7.516;2023-01-29T07:07:49;18.60;;;12.80;;
4529;SDS011;2277;51.626;7.516;2023-01-29T07:10:15;14.57;;;13.13;;
4529;SDS011;2277;51.626;7.516;2023-01-29T07:12:40;14.87;;;11.60;;
4529;SDS011;2277;51.626;7.516;2023-01-29T07:15:06;14.20;;;12.97;;
4529;SDS011;2277;51.626;7.516;2023-01-29T07:17:32;20.08;;;13.10;;
4529;SDS011;2277;51.626;7.516;2023-01-29T07:19:58;20.40;;;14.07;;
4529;SDS011;2277;51.626;7.516;2023-01-29T07:22:23;17.03;;;13.40;;
4529;SDS011;2277;51.626;7.516;2023-01-29T07:24:49;23.83;;;14.40;;
4529;SDS011;2277;51.626;7.516;2023-01-29T07:27:14;19.03;;;15.13;;
4529;SDS011;2277;51.626;7.516;2023-01-29T07:29:40;19.63;;;14.80;;
4529;SDS011;2277;51.626;7.516;2023-01-29T07:32:06;24.80;;;15.30;;
4529;SDS011;2277;51.626;7.516;2023-01-29T07:34:31;22.13;;;15.30;;
4529;SDS011;2277;51.626;7.516;2023-01-29T07:36:57;24.67;;;14.10;;
4529;SDS011;2277;51.626;7.516;2023-01-29T07:39:23;14.53;;;12.37;;
4529;SDS011;2277;51.626;7.516;2023-01-29T07:41:48;16.20;;;14.30;;
4529;SDS011;2277;51.626;7.516;2023-01-29T07:44:14;27.33;;;15.27;;
4529;SDS011;2277;51.626;7.516;2023-01-29T07:46:40;21.27;;;14.60;;
4529;SDS011;2277;51.626;7.516;2023-01-29T07:49:05;30.43;;;15.80;;
4529;SDS011;2277;51.626;7.516;2023-01-29T07:51:31;24.23;;;13.05;;
4529;SDS011;2277;51.626;7.516;2023-01-29T07:53:57;24.43;;;13.60;;
4529;SDS011;2277;51.626;7.516;2023-01-29T07:56:23;21.33;;;12.27;;
4529;SDS011;2277;51.626;7.516;2023-01-29T07:58:48;23.10;;;11.90;;
4529;SDS011;2277;51.626;7.516;2023-01-29T08:01:14;19.37;;;10.83;;
4529;SDS011;2277;51.626;7.516;2023-01-29T08:03:39;17.23;;;12.77;;
4529;SDS011;2277;51.626;7.516;2023-01-29T08:06:05;40.53;;;13.77;;
4529;SDS011;2277;51.626;7.516;2023-01-29T08:08:31;25.30;;;15.73;;
4529;SDS011;2277;51.626;7.516;2023-01-29T08:10:59;16.77;;;14.00;;
4529;SDS011;2277;51.626;7.516;2023-01-29T08:13:26;23.83;;;13.97;;
4529;SDS011;2277;51.626;7.516;2023-01-29T08:15:52;22.50;;;17.20;;
4529;SDS011;2277;51.626;7.516;2023-01-29T08:18:17;23.57;;;12.40;;
4529;SDS011;2277;51.626;7.516;2023-01-29T08:20:43;20.97;;;13.00;;
4529;SDS011;2277;51.626;7.516;2023-01-29T08:23:12;22.27;;;15.10;;
4529;SDS011;2277;51.626;7.516;2023-01-29T08:25:39;26.88;;;13.93;;
4529;SDS011;2277;51.626;7.516;2023-01-29T08:28:04;14.30;;;11.87;;
4529;SDS011;2277;51.626;7.516;2023-01-29T08:30:31;41.20;;;13.70;;
4529;SDS011;2277;51.626;7.516;2023-01-29T08:32:58;20.15;;;15.38;;
4529;SDS011;2277;51.626;7.516;2023-01-29T08:35:24;19.10;;;11.57;;
4529;SDS011;2277;51.626;7.516;2023-01-29T08:37:57;20.13;;;14.18;;
4529;SDS011;2277;51.626;7.516;2023-01-29T08:40:24;21.70;;;15.90;;
4529;SDS011;2277;51.626;7.516;2023-01-29T08:42:50;16.43;;;12.93;;
4529;SDS011;2277;51.626;7.516;2023-01-29T08:45:16;16.33;;;12.43;;
4529;SDS011;2277;51.626;7.516;2023-01-29T08:47:45;19.33;;;13.47;;
4529;SDS011;2277;51.626;7.516;2023-01-29T08:50:12;16.05;;;14.55;;
4529;SDS011;2277;51.626;7.516;2023-01-29T08:52:38;34.13;;;14.17;;
4529;SDS011;2277;51.626;7.516;2023-01-29T08:55:04;24.53;;;12.80;;
4529;SDS011;2277;51.626;7.516;2023-01-29T08:57:30;25.90;;;15.25;;
4529;SDS011;2277;51.626;7.516;2023-01-29T08:59:55;22.37;;;11.83;;
4529;SDS011;2277;51.626;7.516;2023-01-29T09:02:21;24.60;;;15.10;;
4529;SDS011;2277;51.626;7.516;2023-01-29T09:04:46;21.50;;;11.63;;
4529;SDS011;2277;51.626;7.516;2023-01-29T09:07:12;22.40;;;12.50;;
4529;SDS011;2277;51.626;7.516;2023-01-29T09:09:37;24.77;;;13.10;;
4529;SDS011;2277;51.626;7.516;2023-01-29T09:12:03;21.83;;;13.83;;
4529;SDS011;2277;51.626;7.516;2023-01-29T09:14:29;16.07;;;12.67;;
4529;SDS011;2277;51.626;7.516;2023-01-29T09:16:54;26.27;;;12.57;;
4529;SDS011;2277;51.626;7.516;2023-01-29T09:19:20;14.67;;;13.27;;
4529;SDS011;2277;51.626;7.516;2023-01-29T09:21:46;20.33;;;13.30;;
4529;SDS011;2277;51.626;7.516;2023-01-29T09:24:11;18.93;;;12.37;;
4529;SDS011;2277;51.626;7.516;2023-01-29T09:26:37;24.47;;;14.07;;
4529;SDS011;2277;51.626;7.516;2023-01-29T09:29:04;19.70;;;12.82;;
4529;SDS011;2277;51.626;7.516;2023-01-29T09:31:30;17.13;;;12.98;;
4529;SDS011;2277;51.626;7.516;2023-01-29T09:33:55;17.93;;;12.70;;
4529;SDS011;2277;51.626;7.516;2023-01-29T09:36:21;14.00;;;11.67;;
4529;SDS011;2277;51.626;7.516;2023-01-29T09:38:46;20.63;;;15.97;;
4529;SDS011;2277;51.626;7.516;2023-01-29T09:44:43;21.55;;;15.80;;
4529;SDS011;2277;51.626;7.516;2023-01-29T09:47:23;19.30;;;17.70;;
4529;SDS011;2277;51.626;7.516;2023-01-29T09:52:35;27.42;;;14.40;;
4529;SDS011;2277;51.626;7.516;2023-01-29T09:58:18;17.88;;;14.07;;
4529;SDS011;2277;51.626;7.516;2023-01-29T10:01:00;17.60;;;12.80;;
4529;SDS011;2277;51.626;7.516;2023-01-29T10:14:13;21.97;;;12.60;;
4529;SDS011;2277;51.626;7.516;2023-01-29T10:25:18;16.83;;;12.80;;
4529;SDS011;2277;51.626;7.516;2023-01-29T10:27:56;19.53;;;16.53;;
4529;SDS011;2277;51.626;7.516;2023-01-29T10:30:32;20.63;;;12.10;;
4529;SDS011;2277;51.626;7.516;2023-01-29T10:33:03;28.73;;;16.80;;
4529;SDS011;2277;51.626;7.516;2023-01-29T10:35:32;22.83;;;16.20;;
4529;SDS011;2277;51.626;7.516;2023-01-29T10:38:10;13.80;;;10.00;;
4529;SDS011;2277;51.626;7.516;2023-01-29T10:43:42;14.83;;;10.10;;
4529;SDS011;2277;51.626;7.516;2023-01-29T11:00:37;19.43;;;10.67;;
4529;SDS011;2277;51.626;7.516;2023-01-29T11:05:50;22.73;;;14.03;;
4529;SDS011;2277;51.626;7.516;2023-01-29T11:08:39;23.08;;;13.23;;
4529;SDS011;2277;51.626;7.516;2023-01-29T11:13:44;24.17;;;12.57;;
4529;SDS011;2277;51.626;7.516;2023-01-29T11:16:21;28.80;;;17.37;;
4529;SDS011;2277;51.626;7.516;2023-01-29T11:18:51;17.43;;;15.30;;
4529;SDS011;2277;51.626;7.516;2023-01-29T11:21:19;18.73;;;10.57;;
4529;SDS011;2277;51.626;7.516;2023-01-29T11:23:45;23.97;;;15.27;;
4529;SDS011;2277;51.626;7.516;2023-01-29T11:26:12;16.80;;;13.27;;
4529;SDS011;2277;51.626;7.516;2023-01-29T11:28:45;24.43;;;16.43;;
4529;SDS011;2277;51.626;7.516;2023-01-29T11:31:19;22.03;;;14.20;;
4529;SDS011;2277;51.626;7.516;2023-01-29T11:34:02;28.80;;;18.20;;
4529;SDS011;2277;51.626;7.516;2023-01-29T11:36:37;18.03;;;11.10;;
4529;SDS011;2277;51.626;7.516;2023-01-29T11:39:11;23.50;;;13.77;;
4529;SDS011;2277;51.626;7.516;2023-01-29T11:41:59;22.90;;;13.30;;
4529;SDS011;2277;51.626;7.516;2023-01-29T11:47:09;29.37;;;12.27;;
4529;SDS011;2277;51.626;7.516;2023-01-29T11:49:50;21.17;;;11.33;;
4529;SDS011;2277;51.626;7.516;2023-01-29T11:52:19;18.03;;;11.33;;
4529;SDS011;2277;51.626;7.516;2023-01-29T11:55:01;22.67;;;12.77;;
4529;SDS011;2277;51.626;7.516;2023-01-29T11:57:31;22.30;;;10.87;;
4529;SDS011;2277;51.626;7.516;2023-01-29T12:00:06;21.60;;;13.80;;
4529;SDS011;2277;51.626;7.516;2023-01-29T12:02:52;22.60;;;16.73;;
4529;SDS011;2277;51.626;7.516;2023-01-29T12:05:21;18.40;;;15.63;;
4529;SDS011;2277;51.626;7.516;2023-01-29T12:07:49;18.90;;;16.70;;
4529;SDS011;2277;51.626;7.516;2023-01-29T12:10:37;14.80;;;12.23;;
4529;SDS011;2277;51.626;7.516;2023-01-29T12:15:44;21.00;;;11.73;;
4529;SDS011;2277;51.626;7.516;2023-01-29T12:18:33;16.50;;;11.25;;
4529;SDS011;2277;51.626;7.516;2023-01-29T12:21:06;17.73;;;12.77;;
4529;SDS011;2277;51.626;7.516;2023-01-29T12:26:35;15.10;;;10.40;;
4529;SDS011;2277;51.626;7.516;2023-01-29T12:31:51;23.37;;;19.10;;
4529;SDS011;2277;51.626;7.516;2023-01-29T12:34:52;22.80;;;17.83;;
4529;SDS011;2277;51.626;7.516;2023-01-29T12:40:15;20.30;;;17.47;;
4529;SDS011;2277;51.626;7.516;2023-01-29T12:42:43;13.53;;;11.30;;
4529;SDS011;2277;51.626;7.516;2023-01-29T12:45:15;26.67;;;12.50;;
4529;SDS011;2277;51.626;7.516;2023-01-29T12:47:44;17.40;;;10.40;;
4529;SDS011;2277;51.626;7.516;2023-01-29T12:52:50;11.73;;;10.17;;
4529;SDS011;2277;51.626;7.516;2023-01-29T12:55:24;35.30;;;13.17;;
4529;SDS011;2277;51.626;7.516;2023-01-29T12:57:57;15.57;;;11.93;;
4529;SDS011;2277;51.626;7.516;2023-01-29T13:00:27;18.00;;;12.80;;
4529;SDS011;2277;51.626;7.516;2023-01-29T13:05:48;18.73;;;13.93;;
4529;SDS011;2277;51.626;7.516;2023-01-29T13:10:53;19.20;;;9.43;;
4529;SDS011;2277;51.626;7.516;2023-01-29T13:13:26;17.10;;;11.60;;
4529;SDS011;2277;51.626;7.516;2023-01-29T13:15:56;13.53;;;10.33;;
4529;SDS011;2277;51.626;7.516;2023-01-29T13:18:32;16.13;;;12.73;;
4529;SDS011;2277;51.626;7.516;2023-01-29T13:21:09;21.10;;;11.77;;
4529;SDS011;2277;51.626;7.516;2023-01-29T13:23:47;17.80;;;13.20;;
4529;SDS011;2277;51.626;7.516;2023-01-29T13:26:16;22.20;;;13.10;;
4529;SDS011;2277;51.626;7.516;2023-01-29T13:28:45;15.10;;;13.60;;
4529;SDS011;2277;51.626;7.516;2023-01-29T13:31:13;14.50;;;12.80;;
4529;SDS011;2277;51.626;7.516;2023-01-29T13:33:53;16.70;;;15.07;;
4529;SDS011;2277;51.626;7.516;2023-01-29T13:36:27;15.70;;;12.50;;
4529;SDS011;2277;51.626;7.516;2023-01-29T13:38:56;16.30;;;14.73;;
4529;SDS011;2277;51.626;7.516;2023-01-29T13:41:40;14.37;;;11.60;;
4529;SDS011;2277;51.626;7.516;2023-01-29T13:44:15;9.10;;;8.20;;
4529;SDS011;2277;51.626;7.516;2023-01-29T13:46:48;15.03;;;11.33;;
4529;SDS011;2277;51.626;7.516;2023-01-29T13:49:24;10.87;;;8.50;;
4529;SDS011;2277;51.626;7.516;2023-01-29T13:51:57;14.80;;;9.60;;
4529;SDS011;2277;51.626;7.516;2023-01-29T13:54:37;22.57;;;13.50;;
4529;SDS011;2277;51.626;7.516;2023-01-29T13:57:03;16.00;;;12.43;;
4529;SDS011;2277;51.626;7.516;2023-01-29T13:59:51;17.90;;;11.77;;
4529;SDS011;2277;51.626;7.516;2023-01-29T14:02:22;16.53;;;10.80;;
4529;SDS011;2277;51.626;7.516;2023-01-29T14:04:50;15.67;;;10.90;;
4529;SDS011;2277;51.626;7.516;2023-01-29T14:10:14;18.57;;;12.73;;
4529;SDS011;2277;51.626;7.516;2023-01-29T14:12:41;16.13;;;10.40;;
4529;SDS011;2277;51.626;7.516;2023-01-29T14:17:59;14.10;;;11.13;;
4529;SDS011;2277;51.626;7.516;2023-01-29T14:20:49;12.23;;;8.57;;
4529;SDS011;2277;51.626;7.516;2023-01-29T14:26:19;13.23;;;9.03;;
4529;SDS011;2277;51.626;7.516;2023-01-29T14:28:52;16.97;;;9.20;;
4529;SDS011;2277;51.626;7.516;2023-01-29T14:31:27;22.33;;;14.10;;
4529;SDS011;2277;51.626;7.516;2023-01-29T14:34:00;16.40;;;11.67;;
4529;SDS011;2277;51.626;7.516;2023-01-29T14:36:27;18.23;;;11.57;;
4529;SDS011;2277;51.626;7.516;2023-01-29T14:38:53;13.40;;;9.90;;
4529;SDS011;2277;51.626;7.516;2023-01-29T14:47:00;14.80;;;9.57;;
4529;SDS011;2277;51.626;7.516;2023-01-29T14:52:13;17.20;;;11.53;;
4529;SDS011;2277;51.626;7.516;2023-01-29T14:54:40;9.77;;;8.20;;
4529;SDS011;2277;51.626;7.516;2023-01-29T14:57:08;16.07;;;9.27;;
4529;SDS011;2277;51.626;7.516;2023-01-29T15:04:46;10.03;;;7.60;;
4529;SDS011;2277;51.626;7.516;2023-01-29T15:07:18;7.80;;;6.90;;
4529;SDS011;2277;51.626;7.516;2023-01-29T15:10:08;11.60;;;9.27;;
4529;SDS011;2277;51.626;7.516;2023-01-29T15:15:17;12.73;;;9.87;;
4529;SDS011;2277;51.626;7.516;2023-01-29T15:20:34;16.27;;;11.80;;
4529;SDS011;2277;51.626;7.516;2023-01-29T15:26:26;19.00;;;10.53;;
4529;SDS011;2277;51.626;7.516;2023-01-29T15:28:56;14.23;;;10.00;;
4529;SDS011;2277;51.626;7.516;2023-01-29T15:31:22;13.90;;;9.20;;
4529;SDS011;2277;51.626;7.516;2023-01-29T15:33:49;13.43;;;8.70;;
4529;SDS011;2277;51.626;7.516;2023-01-29T15:36:20;13.50;;;8.77;;
4529;SDS011;2277;51.626;7.516;2023-01-29T15:38:48;11.90;;;8.13;;
4529;SDS011;2277;51.626;7.516;2023-01-29T15:41:34;11.07;;;9.67;;
4529;SDS011;2277;51.626;7.516;2023-01-29T15:44:00;14.97;;;9.20;;
4529;SDS011;2277;51.626;7.516;2023-01-29T15:46:26;12.53;;;9.90;;
4529;SDS011;2277;51.626;7.516;2023-01-29T15:48:56;15.90;;;7.13;;
4529;SDS011;2277;51.626;7.516;2023-01-29T15:51:26;14.83;;;10.20;;
4529;SDS011;2277;51.626;7.516;2023-01-29T15:53:53;8.40;;;7.60;;
4529;SDS011;2277;51.626;7.516;2023-01-29T15:56:24;14.70;;;11.77;;
4529;SDS011;2277;51.626;7.516;2023-01-29T15:58:53;13.23;;;8.60;;
4529;SDS011;2277;51.626;7.516;2023-01-29T16:01:24;12.70;;;7.97;;
4529;SDS011;2277;51.626;7.516;2023-01-29T16:03:51;16.03;;;9.27;;
4529;SDS011;2277;51.626;7.516;2023-01-29T16:06:17;9.10;;;8.20;;
4529;SDS011;2277;51.626;7.516;2023-01-29T16:08:47;10.17;;;8.63;;
4529;SDS011;2277;51.626;7.516;2023-01-29T16:11:15;14.80;;;8.30;;
4529;SDS011;2277;51.626;7.516;2023-01-29T16:13:43;14.47;;;8.93;;
4529;SDS011;2277;51.626;7.516;2023-01-29T16:18:40;18.67;;;10.33;;
4529;SDS011;2277;51.626;7.516;2023-01-29T16:23:58;11.60;;;7.57;;
4529;SDS011;2277;51.626;7.516;2023-01-29T16:26:27;12.83;;;8.90;;
4529;SDS011;2277;51.626;7.516;2023-01-29T16:29:04;13.13;;;9.03;;
4529;SDS011;2277;51.626;7.516;2023-01-29T16:31:31;11.57;;;10.40;;
4529;SDS011;2277;51.626;7.516;2023-01-29T16:34:04;13.33;;;10.03;;
4529;SDS011;2277;51.626;7.516;2023-01-29T16:36:39;13.10;;;9.30;;
4529;SDS011;2277;51.626;7.516;2023-01-29T16:39:14;11.37;;;10.20;;
4529;SDS011;2277;51.626;7.516;2023-01-29T16:44:35;35.13;;;7.53;;
4529;SDS011;2277;51.626;7.516;2023-01-29T16:47:11;11.30;;;8.63;;
4529;SDS011;2277;51.626;7.516;2023-01-29T16:49:56;10.93;;;8.40;;
4529;SDS011;2277;51.626;7.516;2023-01-29T16:52:40;14.43;;;9.33;;
4529;SDS011;2277;51.626;7.516;2023-01-29T16:55:25;21.80;;;13.97;;
4529;SDS011;2277;51.626;7.516;2023-01-29T16:57:56;13.37;;;11.30;;
4529;SDS011;2277;51.626;7.516;2023-01-29T17:00:28;8.40;;;7.60;;
4529;SDS011;2277;51.626;7.516;2023-01-29T17:03:04;9.17;;;7.97;;
4529;SDS011;2277;51.626;7.516;2023-01-29T17:05:32;15.43;;;9.87;;
4529;SDS011;2277;51.626;7.516;2023-01-29T17:08:00;23.13;;;11.43;;
4529;SDS011;2277;51.626;7.516;2023-01-29T17:10:28;13.67;;;9.47;;
4529;SDS011;2277;51.626;7.516;2023-01-29T17:13:00;17.43;;;13.40;;
4529;SDS011;2277;51.626;7.516;2023-01-29T17:15:46;16.63;;;12.90;;
4529;SDS011;2277;51.626;7.516;2023-01-29T17:18:18;14.37;;;10.27;;
4529;SDS011;2277;51.626;7.516;2023-01-29T17:20:49;19.33;;;10.03;;
4529;SDS011;2277;51.626;7.516;2023-01-29T17:23:16;13.20;;;9.73;;
4529;SDS011;2277;51.626;7.516;2023-01-29T17:25:43;9.20;;;7.33;;
4529;SDS011;2277;51.626;7.516;2023-01-29T17:28:13;15.87;;;10.20;;
4529;SDS011;2277;51.626;7.516;2023-01-29T17:30:41;19.03;;;10.07;;
4529;SDS011;2277;51.626;7.516;2023-01-29T17:35:37;14.43;;;11.97;;
4529;SDS011;2277;51.626;7.516;2023-01-29T17:38:03;10.37;;;8.33;;
4529;SDS011;2277;51.626;7.516;2023-01-29T17:43:15;11.23;;;9.30;;
4529;SDS011;2277;51.626;7.516;2023-01-29T17:45:41;12.13;;;8.90;;
4529;SDS011;2277;51.626;7.516;2023-01-29T17:48:11;15.97;;;11.13;;